VA80 weather

Woodle Airport
Midlothian, Virginia, United States

Public forecast

Using degrees Fahrenheit for public forecast. Weather courtesy of forecast.io.

Closest aviation weather report (METAR) to Woodle Airport

Closest report is Chesterfield County Airport, 9.5 nm (17.6 km) ESE. Retrieved 2020/08/05 07:56 UTC (14 minutes ago):

KFCI 050756Z AUTO 00000KT 10SM BKN120 24/22 A2998 RMK AO2 SLP159 T02390222

Closest aviation forecast (TAF) to Woodle Airport

Closest forecast is Richmond International Airport, 18.3 nm (33.8 km) E. Retrieved 2020/08/05 06:22 UTC (2 hours ago):

TAF KRIC 050520Z 0506/0606 22005KT P6SM BKN150 FM051400 02004KT P6SM BKN150 FM051700 08004KT P6SM BKN050 FM060000 11004KT P6SM BKN080